.
WxDataArchive / Data Records for 2015-04-03
2015-04-02 April 2015 2015-04-04

Data Records for Friday, 03 April 2015

Time	Temp	Chill	HIndex	Humid	Dewpt	 Wind 	HiWind	WindDir	Rain 	Barom
-----	----	-----	------	-----	-----	------	------	-------	-----	-----
00:00	45.7	45.7	45.7	91	43.2	0	0	---	0.00	29.848 
00:05	45.2	45.2	45.2	91	42.7	0	0	---	0.00	29.848 
00:10	44.8	44.8	44.8	91	42.3	0	0	---	0.00	29.848 
00:15	44.5	44.5	44.5	91	42.0	0	0	---	0.00	29.839 
00:20	44.2	44.2	44.2	91	41.7	0	0	---	0.00	29.839 
00:25	43.8	43.8	43.8	91	41.3	0	0	---	0.00	29.839 
00:30	43.5	43.5	43.5	92	41.3	0	0	---	0.00	29.834 
00:35	43.2	43.2	43.2	92	41.0	0	0	---	0.00	29.834 
00:40	43.1	43.1	43.1	92	40.9	0	0	---	0.00	29.834 
00:45	43.1	43.1	43.1	92	40.9	0	0	---	0.00	29.847 
00:50	42.9	42.9	42.9	92	40.7	0	0	---	0.00	29.847 
00:55	42.8	42.8	42.8	92	40.6	0	0	---	0.00	29.847 
01:00	42.6	42.6	42.6	92	40.4	0	0	---	0.00	29.847 
01:05	42.5	42.5	42.5	92	40.3	0	0	---	0.00	29.847 
01:10	42.2	42.2	42.2	93	40.3	0	0	---	0.00	29.847 
01:15	42.1	42.1	42.1	93	40.2	0	0	---	0.00	29.832 
01:20	41.8	41.8	41.8	93	39.9	0	0	---	0.00	29.832 
01:25	41.6	41.6	41.6	93	39.7	0	0	---	0.00	29.832 
01:30	41.5	41.5	41.5	93	39.6	0	0	---	0.00	29.842 
01:35	41.2	41.2	41.2	93	39.3	0	0	---	0.00	29.842 
01:40	41.1	41.1	41.1	93	39.2	0	0	---	0.00	29.842 
01:45	40.8	40.8	40.8	93	38.9	0	0	---	0.00	29.840 
01:50	40.6	40.6	40.6	93	38.7	0	0	---	0.00	29.840 
01:55	40.6	40.6	40.6	93	38.7	0	0	---	0.00	29.840 
02:00	40.6	40.6	40.6	93	38.7	0	0	---	0.00	29.846 
02:05	40.5	40.5	40.5	93	38.6	0	0	---	0.00	29.846 
02:10	40.5	40.5	40.5	94	38.9	0	0	---	0.00	29.846 
02:15	40.5	40.5	40.5	94	38.9	0	0	---	0.00	29.848 
02:20	40.5	40.5	40.5	94	38.9	0	0	---	0.00	29.848 
02:25	40.6	40.6	40.6	94	39.0	0	0	---	0.00	29.848 
02:30	40.8	40.8	40.8	94	39.2	0	0	---	0.00	29.857 
02:35	40.9	40.9	40.9	94	39.3	0	0	---	0.00	29.857 
02:40	41.2	41.2	41.2	94	39.6	0	0	---	0.00	29.857 
02:45	41.5	41.5	41.5	94	39.9	0	0	---	0.00	29.859 
02:50	41.5	41.5	41.5	94	39.9	0	0	---	0.00	29.859 
02:55	41.8	41.8	41.8	95	40.5	0	0	---	0.00	29.859 
03:00	41.9	41.9	41.9	95	40.6	0	0	---	0.00	29.849 
03:05	41.9	41.9	41.9	95	40.6	0	0	---	0.00	29.849 
03:10	41.9	41.9	41.9	95	40.6	0	0	---	0.00	29.849 
03:15	41.9	41.9	41.9	95	40.6	0	0	---	0.00	29.853 
03:20	41.9	41.9	41.9	95	40.6	0	0	---	0.00	29.853 
03:25	41.9	41.9	41.9	95	40.6	0	0	---	0.00	29.853 
03:30	41.9	41.9	41.9	95	40.6	0	0	---	0.00	29.835 
03:35	41.8	41.8	41.8	95	40.5	0	0	---	0.00	29.835 
03:40	41.8	41.8	41.8	95	40.5	0	0	---	0.00	29.835 
03:45	41.8	41.8	41.8	95	40.5	0	0	---	0.00	29.816 
03:50	41.8	41.8	41.8	95	40.5	0	0	---	0.00	29.816 
03:55	41.8	41.8	41.8	95	40.5	0	0	---	0.00	29.816 
04:00	41.8	41.8	41.8	95	40.5	0	0	---	0.00	29.784 
04:05	41.9	41.9	41.9	95	40.6	0	0	---	0.00	29.784 
04:10	42.1	42.1	42.1	95	40.8	0	0	---	0.00	29.784 
04:15	42.2	42.2	42.2	95	40.9	0	1	270	0.00	29.798 
04:20	42.2	42.2	42.2	95	40.9	0	1	270	0.00	29.798 
04:25	42.2	42.2	42.2	95	40.9	0	0	---	0.00	29.798 
04:30	42.3	42.3	42.3	95	41.0	0	2	270	0.00	29.814 
04:35	42.6	42.6	42.6	96	41.5	0	2	270	0.00	29.814 
04:40	42.9	42.9	42.9	96	41.8	0	0	---	0.00	29.814 
04:45	43.2	43.2	43.2	96	42.1	0	1	270	0.00	29.814 
04:50	43.3	43.3	43.3	96	42.2	0	1	270	0.00	29.814 
04:55	43.3	43.3	43.3	96	42.2	0	0	---	0.00	29.814 
05:00	43.3	43.3	43.3	96	42.2	0	1	270	0.00	29.819 
05:05	43.3	43.3	43.3	96	42.2	0	1	270	0.00	29.819 
05:10	43.5	43.5	43.5	96	42.4	0	0	---	0.00	29.819 
05:15	43.3	43.3	43.3	96	42.2	0	0	---	0.00	29.813 
05:20	43.3	43.3	43.3	96	42.2	0	0	---	0.00	29.813 
05:25	43.3	43.3	43.3	96	42.2	0	0	---	0.00	29.813 
05:30	43.3	43.3	43.3	96	42.2	0	0	---	0.00	29.813 
05:35	43.3	43.3	43.3	96	42.2	0	0	---	0.00	29.813 
05:40	43.3	43.3	43.3	96	42.2	0	0	---	0.00	29.813 
05:45	43.5	43.5	43.5	96	42.4	0	0	---	0.00	29.811 
05:50	43.5	43.5	43.5	96	42.4	0	0	---	0.00	29.811 
05:55	43.6	43.6	43.6	96	42.5	0	0	---	0.00	29.811 
06:00	43.8	43.8	43.8	96	42.7	0	0	---	0.00	29.813 
06:05	43.9	43.9	43.9	96	42.8	0	0	---	0.00	29.813 
06:10	44.1	44.1	44.1	96	43.0	0	0	---	0.00	29.813 
06:15	44.2	44.2	44.2	96	43.1	0	0	---	0.00	29.823 
06:20	44.3	44.3	44.3	96	43.2	0	0	---	0.00	29.823 
06:25	44.5	44.5	44.5	96	43.4	0	0	---	0.00	29.823 
06:30	44.5	44.5	44.5	96	43.4	0	0	---	0.00	29.812 
06:35	44.5	44.5	44.5	96	43.4	0	0	---	0.00	29.812 
06:40	44.3	44.3	44.3	96	43.2	0	0	---	0.00	29.812 
06:45	44.3	44.3	44.3	96	43.2	0	0	---	0.00	29.799 
06:50	44.2	44.2	44.2	96	43.1	0	0	---	0.00	29.799 
06:55	44.3	44.3	44.3	96	43.2	0	0	---	0.00	29.799 
07:00	44.2	44.2	44.2	96	43.1	0	0	---	0.00	29.811 
07:05	44.2	44.2	44.2	96	43.1	0	0	---	0.00	29.811 
07:10	44.2	44.2	44.2	96	43.1	0	0	---	0.00	29.811 
07:15	44.2	44.2	44.2	96	43.1	0	0	---	0.00	29.824 
07:20	44.2	44.2	44.2	96	43.1	0	1	270	0.00	29.824 
07:25	44.2	44.2	44.2	96	43.1	0	1	270	0.00	29.824 
07:30	44.2	44.2	44.2	96	43.1	0	0	---	0.00	29.836 
07:35	44.3	44.3	44.3	96	43.2	0	0	---	0.00	29.836 
07:40	44.3	44.3	44.3	96	43.2	0	0	---	0.00	29.836 
07:45	44.5	44.5	44.5	96	43.4	0	0	---	0.00	29.834 
07:50	44.5	44.5	44.5	96	43.4	0	0	---	0.00	29.834 
07:55	44.5	44.5	44.5	96	43.4	0	0	---	0.00	29.834 
08:00	44.5	44.5	44.5	96	43.4	0	0	---	0.00	29.835 
08:05	44.5	44.5	44.5	96	43.4	0	0	---	0.00	29.835 
08:10	44.5	44.5	44.5	96	43.4	0	0	---	0.00	29.835 
08:15	44.6	44.6	44.6	96	43.5	0	0	---	0.00	29.831 
08:20	44.8	44.8	44.8	96	43.7	0	0	---	0.00	29.831 
08:25	44.9	44.9	44.9	97	44.1	0	1	270	0.00	29.831 
08:30	45.2	45.2	45.2	96	44.1	0	1	270	0.00	29.832 
08:35	45.5	45.5	45.5	97	44.7	0	1	270	0.00	29.832 
08:40	45.7	45.7	45.7	97	44.9	0	0	---	0.00	29.832 
08:45	46.0	46.0	46.0	97	45.2	0	0	---	0.00	29.836 
08:50	46.2	46.2	46.2	97	45.4	0	0	---	0.00	29.836 
08:55	46.2	46.2	46.2	97	45.4	0	0	---	0.00	29.836 
09:00	46.4	46.4	46.4	97	45.6	0	0	---	0.00	29.836 
09:05	46.5	46.5	46.5	97	45.7	0	0	---	0.00	29.836 
09:10	46.8	46.8	46.8	97	46.0	0	0	---	0.00	29.836 
09:15	46.8	46.8	46.8	97	46.0	0	1	292	0.00	29.848 
09:20	47.1	47.1	47.1	97	46.3	0	0	---	0.00	29.848 
09:25	47.3	47.3	47.3	97	46.5	0	1	292	0.00	29.848 
09:30	47.3	47.3	47.3	97	46.5	0	1	292	0.00	29.859 
09:35	47.4	47.4	47.4	97	46.6	0	1	292	0.00	29.859 
09:40	47.7	47.7	47.7	97	46.9	0	1	292	0.00	29.859 
09:45	48.0	48.0	48.0	97	47.2	0	0	---	0.00	29.848 
09:50	48.2	48.2	48.2	97	47.4	0	0	---	0.00	29.848 
09:55	48.3	48.3	48.3	97	47.5	0	1	292	0.00	29.848 
10:00	48.5	48.5	48.5	97	47.7	0	1	292	0.00	29.835 
10:05	48.8	48.8	48.8	97	48.0	0	1	292	0.00	29.835 
10:10	48.8	48.8	48.8	97	48.0	0	2	292	0.00	29.835 
10:15	48.9	48.9	48.9	97	48.1	1	3	292	0.00	29.849 
10:20	49.1	49.1	49.1	97	48.3	1	3	292	0.00	29.849 
10:25	49.1	49.1	49.1	97	48.3	0	3	292	0.00	29.849 
10:30	49.1	49.1	49.1	97	48.3	1	4	292	0.00	29.858 
10:35	49.4	49.4	49.4	97	48.6	0	3	292	0.00	29.858 
10:40	49.4	49.4	49.4	97	48.6	1	4	292	0.00	29.858 
10:45	49.5	49.5	49.5	97	48.7	1	3	292	0.00	29.865 
10:50	49.6	49.6	49.6	97	48.8	1	3	292	0.00	29.865 
10:55	49.9	49.9	49.9	97	49.1	1	3	292	0.00	29.865 
11:00	50.1	50.1	50.1	97	49.3	2	5	292	0.00	29.859 
11:05	50.1	50.1	50.1	97	49.3	2	5	270	0.00	29.859 
11:10	49.9	49.9	49.9	97	49.1	2	5	315	0.00	29.859 
11:15	49.9	49.9	49.9	97	49.1	1	3	338	0.00	29.851 
11:20	49.8	49.8	49.8	96	48.7	1	4	338	0.00	29.851 
11:25	49.9	49.9	49.9	96	48.8	0	2	270	0.00	29.851 
11:30	49.8	49.8	49.8	96	48.7	0	3	270	0.00	29.808 
11:35	49.8	49.8	49.8	96	48.7	1	4	270	0.00	29.808 
11:40	49.9	49.9	49.9	96	48.8	0	2	292	0.00	29.808 
11:45	50.1	50.1	50.1	95	48.7	1	4	292	0.00	29.828 
11:50	50.1	50.1	50.1	94	48.4	1	4	292	0.00	29.828 
11:55	50.1	50.1	50.1	93	48.2	0	3	292	0.00	29.828 
12:00	50.1	50.1	50.1	91	47.6	1	3	292	0.00	29.826 
12:05	50.5	50.5	50.5	89	47.4	0	3	292	0.00	29.826 
12:10	50.8	50.8	50.8	87	47.1	0	2	292	0.00	29.826 
12:15	51.1	51.1	51.1	84	46.4	1	3	292	0.00	29.835 
12:20	51.3	51.3	51.3	82	46.0	0	2	292	0.00	29.835 
12:25	51.6	51.6	51.6	81	46.0	1	4	292	0.00	29.835 
12:30	51.9	51.9	51.9	79	45.6	1	4	292	0.00	29.833 
12:35	52.3	52.3	52.3	78	45.6	0	3	292	0.00	29.833 
12:40	52.9	52.9	52.9	77	45.9	0	2	292	0.00	29.833 
12:45	53.3	53.3	53.3	73	44.9	0	1	292	0.00	29.828 
12:50	53.5	53.5	53.5	72	44.7	0	2	292	0.00	29.828 
12:55	53.6	53.6	53.6	70	44.1	0	2	292	0.00	29.828 
13:00	54.1	54.1	54.1	71	44.9	0	2	292	0.00	29.819 
13:05	54.4	54.4	54.4	69	44.4	1	3	292	0.00	29.819 
13:10	54.8	54.8	54.8	67	44.1	0	2	292	0.00	29.819 
13:15	55.0	55.0	55.0	65	43.5	0	2	292	0.00	29.817 
13:20	55.3	55.3	55.3	66	44.1	1	4	292	0.00	29.817 
13:25	55.1	55.1	55.1	65	43.5	1	3	292	0.00	29.817 
13:30	55.0	55.0	55.0	65	43.5	1	2	292	0.00	29.820 
13:35	54.8	54.8	54.8	66	43.7	0	2	292	0.00	29.820 
13:40	54.7	54.7	54.7	66	43.6	1	5	292	0.00	29.820 
13:45	54.5	54.5	54.5	64	42.6	1	5	292	0.00	29.833 
13:50	54.1	54.1	54.1	62	41.4	2	4	315	0.00	29.833 
13:55	53.9	53.9	53.9	60	40.3	1	4	338	0.00	29.833 
14:00	53.9	53.9	53.9	58	39.5	1	4	292	0.00	29.848 
14:05	53.9	53.9	53.9	54	37.6	1	3	292	0.00	29.848 
14:10	53.9	53.9	53.9	47	34.1	2	5	292	0.00	29.848 
14:15	53.9	53.9	53.9	47	34.1	2	4	292	0.00	29.841 
14:20	53.9	53.9	53.9	48	34.7	2	6	338	0.00	29.841 
14:25	53.9	53.9	53.9	46	33.6	2	4	0	0.00	29.841 
14:30	53.6	53.6	53.6	43	31.7	3	9	338	0.00	29.856 
14:35	53.6	53.6	53.6	46	33.3	2	5	338	0.00	29.856 
14:40	53.3	53.3	53.3	48	34.1	4	10	338	0.00	29.856 
14:45	52.6	52.6	52.6	50	34.5	3	9	0	0.00	29.862 
14:50	52.2	52.2	52.2	51	34.6	2	6	338	0.00	29.862 
14:55	51.9	51.9	51.9	50	33.9	2	7	338	0.00	29.862 
15:00	51.7	51.7	51.7	51	34.2	2	5	338	0.00	29.870 
15:05	51.4	51.4	51.4	50	33.4	3	9	338	0.00	29.870 
15:10	51.3	51.3	51.3	51	33.8	2	5	315	0.00	29.870 
15:15	50.8	50.8	50.8	57	36.1	2	6	315	0.00	29.871 
15:20	50.1	50.1	50.1	59	36.3	1	4	338	0.00	29.871 
15:25	49.5	49.5	49.5	60	36.2	2	4	338	0.00	29.871 
15:30	49.2	49.2	49.2	63	37.1	1	4	338	0.00	29.864 
15:35	48.9	48.9	48.9	67	38.4	0	2	315	0.01	29.864 
15:40	48.5	48.5	48.5	70	39.2	0	0	---	0.01	29.864 
15:45	48.3	48.3	48.3	73	40.1	0	1	315	0.00	29.859 
15:50	48.3	48.3	48.3	76	41.1	0	1	315	0.00	29.859 
15:55	48.2	48.2	48.2	77	41.3	0	3	315	0.01	29.859 
16:00	47.9	47.9	47.9	77	41.0	1	3	315	0.00	29.870 
16:05	47.7	47.7	47.7	77	40.8	0	2	315	0.00	29.870 
16:10	47.7	47.7	47.7	76	40.5	1	4	315	0.00	29.870 
16:15	47.9	47.9	47.9	76	40.7	1	3	315	0.00	29.838 
16:20	48.0	48.0	48.0	76	40.8	1	3	315	0.00	29.838 
16:25	48.0	48.0	48.0	76	40.8	1	2	315	0.00	29.838 
16:30	47.9	47.9	47.9	75	40.4	0	2	315	0.00	29.855 
16:35	47.7	47.7	47.7	75	40.2	0	2	315	0.00	29.855 
16:40	47.7	47.7	47.7	75	40.2	0	2	315	0.00	29.855 
16:45	47.6	47.6	47.6	75	40.1	0	1	315	0.00	29.841 
16:50	47.6	47.6	47.6	75	40.1	0	2	315	0.00	29.841 
16:55	47.6	47.6	47.6	76	40.4	0	1	315	0.00	29.841 
17:00	47.7	47.7	47.7	76	40.5	0	0	---	0.00	29.828 
17:05	47.7	47.7	47.7	76	40.5	0	0	---	0.00	29.828 
17:10	47.6	47.6	47.6	76	40.4	0	0	---	0.00	29.828 
17:15	47.6	47.6	47.6	76	40.4	0	2	315	0.00	29.817 
17:20	47.7	47.7	47.7	76	40.5	0	2	315	0.00	29.817 
17:25	47.7	47.7	47.7	75	40.2	0	1	315	0.00	29.817 
17:30	47.9	47.9	47.9	75	40.4	0	2	315	0.00	29.839 
17:35	48.0	48.0	48.0	74	40.1	0	2	315	0.00	29.839 
17:40	48.2	48.2	48.2	74	40.3	0	2	315	0.00	29.839 
17:45	48.3	48.3	48.3	74	40.4	1	2	315	0.00	29.843 
17:50	48.6	48.6	48.6	74	40.7	1	3	315	0.00	29.843 
17:55	48.9	48.9	48.9	72	40.3	1	3	315	0.00	29.843 
18:00	49.2	49.2	49.2	70	39.8	1	4	315	0.00	29.844 
18:05	49.4	49.4	49.4	69	39.7	1	3	315	0.00	29.844 
18:10	49.6	49.6	49.6	67	39.1	1	2	315	0.00	29.844 
18:15	49.6	49.6	49.6	67	39.1	0	2	315	0.00	29.861 
18:20	49.8	49.8	49.8	66	38.9	0	2	315	0.00	29.861 
18:25	49.8	49.8	49.8	65	38.5	0	2	315	0.00	29.861 
18:30	49.8	49.8	49.8	65	38.5	1	3	315	0.00	29.853 
18:35	49.8	49.8	49.8	66	38.9	0	2	338	0.00	29.853 
18:40	49.9	49.9	49.9	65	38.6	1	4	338	0.00	29.853 
18:45	50.1	50.1	50.1	65	38.8	1	2	338	0.00	29.862 
18:50	50.1	50.1	50.1	62	37.6	2	5	248	0.00	29.862 
18:55	50.1	50.1	50.1	56	35.0	3	7	292	0.00	29.862 
19:00	49.9	48.8	49.9	53	33.5	4	10	338	0.00	29.874 
19:05	49.8	48.6	49.8	53	33.4	4	9	338	0.00	29.874 
19:10	49.5	48.3	49.5	52	32.6	4	9	292	0.00	29.874 
19:15	49.2	47.9	49.2	52	32.3	4	11	292	0.00	29.883 
19:20	48.9	48.9	48.9	52	32.1	3	9	292	0.00	29.883 
19:25	48.5	47.1	48.5	51	31.2	4	9	338	0.00	29.883 
19:30	48.0	46.6	48.0	51	30.7	4	11	292	0.00	29.890 
19:35	47.7	45.5	47.7	51	30.5	5	17	292	0.00	29.890 
19:40	47.4	47.4	47.4	51	30.2	3	11	292	0.00	29.890 
19:45	47.3	47.3	47.3	51	30.1	3	9	292	0.00	29.903 
19:50	47.0	47.0	47.0	52	30.3	3	9	292	0.00	29.903 
19:55	46.8	46.8	46.8	53	30.6	2	7	315	0.00	29.903 
20:00	46.7	46.7	46.7	53	30.5	2	6	338	0.00	29.905 
20:05	46.5	46.5	46.5	53	30.3	2	5	338	0.00	29.905 
20:10	46.2	46.2	46.2	53	30.0	2	5	248	0.00	29.905 
20:15	46.1	46.1	46.1	54	30.4	2	7	292	0.00	29.909 
20:20	45.8	45.8	45.8	54	30.1	2	7	270	0.00	29.909 
20:25	45.7	45.7	45.7	54	30.0	2	7	315	0.00	29.909 
20:30	45.5	45.5	45.5	54	29.8	2	6	292	0.00	29.919 
20:35	45.2	45.2	45.2	55	30.0	2	9	315	0.00	29.919 
20:40	44.9	44.9	44.9	55	29.7	1	4	338	0.00	29.919 
20:45	44.8	44.8	44.8	56	30.1	1	6	315	0.00	29.922 
20:50	44.5	44.5	44.5	56	29.8	2	6	315	0.00	29.922 
20:55	44.2	44.2	44.2	57	29.9	1	7	270	0.00	29.922 
21:00	44.1	44.1	44.1	58	30.3	1	6	315	0.00	29.936 
21:05	43.8	43.8	43.8	58	30.0	2	4	292	0.00	29.936 
21:10	43.6	43.6	43.6	59	30.2	2	6	292	0.00	29.936 
21:15	43.3	43.3	43.3	60	30.4	2	5	315	0.00	29.946 
21:20	43.2	43.2	43.2	61	30.7	2	6	292	0.00	29.946 
21:25	43.2	43.2	43.2	61	30.7	3	5	292	0.00	29.946 
21:30	43.1	43.1	43.1	62	31.0	2	9	315	0.00	29.961 
21:35	43.1	43.1	43.1	62	31.0	2	6	338	0.00	29.961 
21:40	42.9	42.9	42.9	62	30.8	3	9	315	0.00	29.961 
21:45	42.9	42.9	42.9	63	31.2	3	6	270	0.00	29.967 
21:50	42.8	42.8	42.8	63	31.1	3	5	270	0.00	29.967 
21:55	42.8	42.8	42.8	63	31.1	3	11	315	0.00	29.967 
22:00	42.5	42.5	42.5	62	30.4	3	6	315	0.00	29.968 
22:05	42.3	42.3	42.3	62	30.2	2	6	270	0.00	29.968 
22:10	42.1	42.1	42.1	62	30.0	3	6	315	0.00	29.968 
22:15	41.8	41.8	41.8	62	29.7	3	12	315	0.00	29.981 
22:20	41.5	41.5	41.5	62	29.5	2	7	292	0.00	29.981 
22:25	41.2	41.2	41.2	63	29.6	1	9	270	0.00	29.981 
22:30	41.1	41.1	41.1	63	29.5	1	4	315	0.00	29.985 
22:35	40.8	40.8	40.8	64	29.6	1	4	315	0.00	29.985 
22:40	40.5	40.5	40.5	63	28.9	1	4	292	0.00	29.985 
22:45	40.3	40.3	40.3	62	28.3	2	8	292	0.00	29.995 
22:50	40.2	40.2	40.2	61	27.8	2	7	292	0.00	29.995 
22:55	40.1	37.4	40.1	59	26.9	4	9	338	0.00	29.995 
23:00	39.9	39.9	39.9	60	27.2	1	5	292	0.00	30.001 
23:05	39.5	39.5	39.5	60	26.8	2	10	292	0.00	30.001 
23:10	39.1	35.4	39.1	60	26.4	5	13	292	0.00	30.001 
23:15	38.8	38.8	38.8	60	26.1	3	7	292	0.00	30.015 
23:20	38.5	38.5	38.5	60	25.8	2	9	292	0.00	30.015 
23:25	38.2	38.2	38.2	60	25.6	3	10	338	0.00	30.015 
23:30	37.9	37.9	37.9	61	25.7	3	7	292	0.00	30.019 
23:35	37.8	37.8	37.8	61	25.6	2	10	292	0.00	30.019 
23:40	37.6	37.6	37.6	61	25.4	3	9	292	0.00	30.019 
23:45	37.3	37.3	37.3	62	25.5	2	7	315	0.00	30.027 
23:50	37.0	37.0	37.0	62	25.2	3	9	315	0.00	30.027 
23:55	36.9	36.9	36.9	62	25.1	2	5	292	0.00	30.027 

CoCoRaHS
IN-AL-39
A2 Web Hosting
Creative Commons License
GoDaddy
search engine by freefind advanced

loaded 2018-11-17 23:10:30 • last modified 2010-11-18 10:43:29
Privacy PolicyDisclaimer
• wx.awcolley.com is powered by PmWiki v.2002016 •
• all content (unless otherwise noted) © 2018 A W Colley